Audubon, New Jersey
Current Conditions -  °F | °C
As of 9:54 AM on Saturday 01 Nov 2014 (Local Time) from KPHL Reporting Station
Moderate Rain Moderate Rain  
Wind Chill: 39°   Ceiling: 4500
Heat Index: 46°   Visibility: 10mi
Dew Point: 40°   Wind: 17mph
Humidity: 79%   Direction: 10°N
Pressure: 29.83"   Gusts: 24mph
Location:  39.89°N, 75.09°W
Report Text: KPHL 011354Z 01015G21KT 10SM RA SCT015 OVC045 08/04 A2983 RMK AO2 SLP102 P0001 T00780044 $
Loading
Personal Weather Stations






























Interactive Weather Map
Tropical Storm Tracking
New forecast layout! Learn more

10-Day Weather Forecast

Advertisements
Track Severe Weather on mobile